Airfield :
LOGIN :

Register | Disclaimer

   EN    FR    IT 

 










Legend :    VFR   Marginal VFR   IFR   Intensive IFR   Very Intensive IFR
Visi :
Ceiling :
>= 8 km
>= 3000ft
5 to 8 km
1000 to 3000 ft
1500m to 5 km
500 to 1000 ft
800 to 1500m
200 to 500 ft
< 800m
< 200 ft
Symbols :   Thunderstorms  Fog  Heavy snow  Heavy precipitations  Wind > 20 kt
SIGMETs :     Misc.  Thunderstorms  Icing  Turbulence  Mountain Waves  Volcanic Ashes







- Airport Elevation : 117 ft
- IATA code : NWI
- Download approach charts


EGSH - Norwich

CURRENT METAR :
  • 240720Z 22007KT 9000 OVC007 15/14 Q1016 TEMPO BKN010

EXPIRED METARs :
  • 240650Z 23010KT 9000 OVC006 14/14 Q1016 NOSIG
  • 240620Z 23009KT 9000 OVC006 14/14 Q1016 NOSIG
  • 240550Z 23009KT 9999 OVC007 14/13 Q1016 NOSIG
  • 240520Z 23009KT 9999 BKN007 OVC010 14/13 Q1016 NOSIG
  • 240450Z 24007KT 200V270 9999 BKN011 14/13 Q1016 TEMPO BKN008

TAF TAF EGSH
Valid from the 24 at 06:00 until the 24 at 15:00 UTC


240500Z 2406/2415 22008KT 9999 BKN010
TEMPO 2406/2415 4000 -RADZ BR BKN005
PROB30
TEMPO 2406/2410 RADZ BKN004
ATIS : +44 1603 420 640
No reported NOTAMs for that airfield.



MET'MAP, your aeronautical weather chart ! - Copyright ORBIFLY December 2007 - Disclaimer

ORBIFLY MET'MAP TEAM :

Programming & Development : Alexandra Zaïnal
Concept & Development : Baudouin d'Aumeries
Co-Development & Prog : Marc-Olivier Méhu
Technical & hardware support : Manuel Goepfert

Contact : metmap@orbifly.com




SOURCES & CREDITS :

   NOAA